createdAt,value
2022-12-26T00:00:25.148Z,15.20
2022-12-26T00:02:52.099Z,15.20
2022-12-26T00:05:18.840Z,15.20
2022-12-26T00:07:45.876Z,15.20
2022-12-26T00:10:13.057Z,15.20
2022-12-26T00:12:39.745Z,15.30
2022-12-26T00:15:07.870Z,15.30
2022-12-26T00:17:35.117Z,15.30
2022-12-26T00:20:02.245Z,15.30
2022-12-26T00:22:28.954Z,15.30
2022-12-26T00:24:55.795Z,15.30
2022-12-26T00:27:22.625Z,15.30
2022-12-26T00:29:49.456Z,15.30
2022-12-26T00:32:16.257Z,15.30
2022-12-26T00:34:42.967Z,15.30
2022-12-26T00:37:09.709Z,15.30
2022-12-26T00:39:36.520Z,15.30
2022-12-26T00:42:03.260Z,15.30
2022-12-26T00:44:29.948Z,15.30
2022-12-26T00:46:56.756Z,15.30
2022-12-26T00:49:24.769Z,15.30
2022-12-26T00:51:51.658Z,15.30
2022-12-26T00:54:18.466Z,15.30
2022-12-26T00:56:45.327Z,15.30
2022-12-26T00:59:12.065Z,15.30
2022-12-26T01:01:39.371Z,15.30
2022-12-26T01:04:06.321Z,15.30
2022-12-26T01:06:33.456Z,15.30
2022-12-26T01:09:00.342Z,15.30
2022-12-26T01:11:42.980Z,15.30
2022-12-26T01:14:11.607Z,15.30
2022-12-26T01:16:39.631Z,15.40
2022-12-26T01:19:06.870Z,15.40
2022-12-26T01:21:34.365Z,15.40
2022-12-26T01:24:01.403Z,15.40
2022-12-26T01:26:28.084Z,15.40
2022-12-26T01:28:54.909Z,15.40
2022-12-26T01:31:23.060Z,15.40
2022-12-26T01:33:50.746Z,15.30
2022-12-26T01:36:18.498Z,15.30
2022-12-26T01:38:45.606Z,15.30
2022-12-26T01:41:21.959Z,15.30
2022-12-26T01:43:56.372Z,15.30
2022-12-26T01:46:26.188Z,15.30
2022-12-26T01:48:56.109Z,15.30
2022-12-26T01:51:25.750Z,15.30
2022-12-26T01:54:37.425Z,15.30
2022-12-26T01:56:46.404Z,15.30
2022-12-26T01:59:22.868Z,15.30
2022-12-26T02:01:52.592Z,15.30
2022-12-26T02:04:44.792Z,15.30
2022-12-26T02:07:11.961Z,15.30
2022-12-26T02:09:38.741Z,15.30
2022-12-26T02:12:35.552Z,15.30
2022-12-26T02:15:03.998Z,15.30
2022-12-26T02:17:31.065Z,15.30
2022-12-26T02:20:23.948Z,15.30
2022-12-26T02:23:02.847Z,15.30
2022-12-26T02:25:52.841Z,15.30
2022-12-26T02:28:48.021Z,15.30
2022-12-26T02:32:00.627Z,15.30
2022-12-26T02:34:40.614Z,15.30
2022-12-26T02:37:15.414Z,15.30
2022-12-26T02:40:00.725Z,15.30
2022-12-26T02:42:41.691Z,15.30
2022-12-26T02:45:27.067Z,15.30
2022-12-26T02:48:07.423Z,15.30
2022-12-26T02:51:01.894Z,15.30
2022-12-26T02:54:54.543Z,15.20
2022-12-26T02:57:54.506Z,15.30
2022-12-26T03:00:40.444Z,15.30
2022-12-26T03:03:43.963Z,15.30
2022-12-26T03:06:34.054Z,15.20
2022-12-26T03:09:26.114Z,15.20
2022-12-26T03:12:17.497Z,15.20
2022-12-26T03:15:10.485Z,15.20
2022-12-26T03:18:05.667Z,15.20
2022-12-26T03:20:38.390Z,15.20
2022-12-26T03:23:15.426Z,15.20
2022-12-26T03:26:19.201Z,15.20
2022-12-26T03:28:48.202Z,15.20
2022-12-26T03:31:15.821Z,15.20
2022-12-26T03:34:05.599Z,15.20
2022-12-26T03:37:07.202Z,15.20
2022-12-26T03:40:23.080Z,15.20
2022-12-26T03:44:01.533Z,15.20
2022-12-26T03:47:27.657Z,15.20
2022-12-26T03:50:18.656Z,15.10
2022-12-26T03:53:25.649Z,15.10
2022-12-26T03:56:40.191Z,15.10
2022-12-26T03:59:42.539Z,15.10
2022-12-26T04:02:31.041Z,15.10
2022-12-26T04:05:20.351Z,15.10
2022-12-26T04:08:18.227Z,15.10
2022-12-26T04:11:12.785Z,15.10
2022-12-26T04:14:42.667Z,15.10
2022-12-26T04:17:41.038Z,15.10
2022-12-26T04:20:33.387Z,15.10
2022-12-26T04:23:39.348Z,15.10
2022-12-26T04:26:34.746Z,15.10
2022-12-26T04:29:20.174Z,15.10
2022-12-26T04:32:26.779Z,15.10
2022-12-26T04:35:23.999Z,15.10
2022-12-26T04:38:10.298Z,15.10
2022-12-26T04:41:01.260Z,15.10
2022-12-26T04:43:51.526Z,15.10
2022-12-26T04:46:24.001Z,15.20
2022-12-26T04:49:11.787Z,15.20
2022-12-26T04:51:38.946Z,15.20
2022-12-26T04:54:06.525Z,15.20
2022-12-26T04:56:33.793Z,15.20
2022-12-26T04:59:00.717Z,15.20
2022-12-26T05:01:46.310Z,15.20
2022-12-26T05:04:36.245Z,15.10
2022-12-26T05:07:24.427Z,15.20
2022-12-26T05:09:53.716Z,15.20
2022-12-26T05:12:21.325Z,15.20
2022-12-26T05:14:48.190Z,15.10
2022-12-26T05:17:34.089Z,15.10
2022-12-26T05:20:19.428Z,15.10
2022-12-26T05:23:05.970Z,15.10
2022-12-26T05:25:58.510Z,15.10
2022-12-26T05:28:43.899Z,15.10
2022-12-26T05:31:13.928Z,15.10
2022-12-26T05:33:59.410Z,15.00
2022-12-26T05:36:37.327Z,15.00
2022-12-26T05:39:04.814Z,15.00
2022-12-26T05:41:31.932Z,14.90
2022-12-26T05:43:58.942Z,15.00
2022-12-26T05:46:25.928Z,14.90
2022-12-26T05:48:52.912Z,14.90
2022-12-26T05:51:19.720Z,14.90
2022-12-26T05:53:48.605Z,14.80
2022-12-26T05:56:16.997Z,14.80
2022-12-26T05:58:43.826Z,14.80
2022-12-26T06:01:16.227Z,14.80
2022-12-26T06:03:47.246Z,14.80
2022-12-26T06:06:14.622Z,14.80
2022-12-26T06:08:42.470Z,14.70
2022-12-26T06:11:11.832Z,14.70
2022-12-26T06:13:40.516Z,14.70
2022-12-26T06:16:12.391Z,14.70
2022-12-26T06:18:40.369Z,14.70
2022-12-26T06:21:09.996Z,14.70
2022-12-26T06:23:37.401Z,14.70
2022-12-26T06:26:05.318Z,14.70
2022-12-26T06:28:33.973Z,14.70
2022-12-26T06:31:05.874Z,14.70
2022-12-26T06:33:32.867Z,14.70
2022-12-26T06:36:05.260Z,14.70
2022-12-26T06:38:32.047Z,14.60
2022-12-26T06:40:58.775Z,14.60
2022-12-26T06:43:25.708Z,14.60
2022-12-26T06:45:59.569Z,14.60
2022-12-26T06:48:27.001Z,14.60
2022-12-26T06:50:56.912Z,14.60
2022-12-26T06:53:25.012Z,14.60
2022-12-26T06:55:52.172Z,14.60
2022-12-26T06:58:19.329Z,14.60
2022-12-26T07:00:46.096Z,14.50
2022-12-26T07:03:13.052Z,14.50
2022-12-26T07:05:40.057Z,14.50
2022-12-26T07:08:07.102Z,14.50
2022-12-26T07:10:37.514Z,14.50
2022-12-26T07:13:04.398Z,14.50
2022-12-26T07:15:31.750Z,14.50
2022-12-26T07:17:58.448Z,14.40
2022-12-26T07:20:25.482Z,14.40
2022-12-26T07:22:52.703Z,14.40
2022-12-26T07:25:19.410Z,14.40
2022-12-26T07:27:46.122Z,14.40
2022-12-26T07:30:13.246Z,14.40
2022-12-26T07:32:39.930Z,14.30
2022-12-26T07:35:07.268Z,14.20
2022-12-26T07:37:34.002Z,14.20
2022-12-26T07:40:00.720Z,14.10
2022-12-26T07:42:27.709Z,14.10
2022-12-26T07:44:54.417Z,14.00
2022-12-26T07:47:21.349Z,14.00
2022-12-26T07:49:48.353Z,14.00
2022-12-26T07:52:15.291Z,13.90
2022-12-26T07:54:42.074Z,13.90
2022-12-26T07:57:46.406Z,13.90
2022-12-26T07:59:56.828Z,13.80
2022-12-26T08:02:23.766Z,13.80
2022-12-26T08:04:51.135Z,13.80
2022-12-26T08:07:18.400Z,13.70
2022-12-26T08:09:45.441Z,13.70
2022-12-26T08:12:13.189Z,13.70
2022-12-26T08:14:40.953Z,13.70
2022-12-26T08:17:08.829Z,13.70
2022-12-26T08:19:35.945Z,13.60
2022-12-26T08:22:02.696Z,13.60
2022-12-26T08:24:29.727Z,13.60
2022-12-26T08:26:56.486Z,13.60
2022-12-26T08:29:23.279Z,13.60
2022-12-26T08:31:50.399Z,13.60
2022-12-26T08:34:17.176Z,13.60
2022-12-26T08:36:44.345Z,13.60
2022-12-26T08:39:11.076Z,13.60
2022-12-26T08:41:38.217Z,13.60
2022-12-26T08:46:52.716Z,13.60
2022-12-26T08:49:19.542Z,13.60
2022-12-26T08:51:46.378Z,13.60
2022-12-26T08:54:13.038Z,13.60
2022-12-26T08:56:40.138Z,13.60
2022-12-26T08:59:06.888Z,13.60
2022-12-26T09:01:33.865Z,13.60
2022-12-26T09:04:03.035Z,13.50
2022-12-26T09:06:32.730Z,13.50
2022-12-26T09:09:01.422Z,13.50
2022-12-26T09:11:29.536Z,13.50
2022-12-26T09:13:58.466Z,13.50
2022-12-26T09:16:37.276Z,13.50
2022-12-26T09:19:06.122Z,13.50
2022-12-26T09:21:33.405Z,13.50
2022-12-26T09:24:03.273Z,13.50
2022-12-26T09:26:30.486Z,13.50
2022-12-26T09:28:57.579Z,13.50
2022-12-26T09:31:27.510Z,13.50
2022-12-26T09:33:55.069Z,13.50
2022-12-26T09:36:26.590Z,13.50
2022-12-26T09:38:56.095Z,13.50
2022-12-26T09:42:02.705Z,13.60
2022-12-26T09:44:58.812Z,13.60
2022-12-26T09:47:42.296Z,13.60
2022-12-26T09:50:22.243Z,13.60
2022-12-26T09:52:50.715Z,13.60
2022-12-26T09:55:41.895Z,13.60
2022-12-26T09:58:30.231Z,13.70
2022-12-26T10:01:16.811Z,13.70
2022-12-26T10:03:47.984Z,13.70
2022-12-26T10:06:23.069Z,13.70
2022-12-26T10:09:23.251Z,13.80
2022-12-26T10:11:55.762Z,13.80
2022-12-26T10:14:47.516Z,13.80
2022-12-26T10:17:14.937Z,13.90
2022-12-26T10:20:00.169Z,13.90
2022-12-26T10:22:37.676Z,13.90
2022-12-26T10:25:34.243Z,13.90
2022-12-26T10:28:04.076Z,14.00
2022-12-26T10:30:40.027Z,14.20
2022-12-26T10:33:17.545Z,14.10
2022-12-26T10:35:46.232Z,14.20
2022-12-26T10:38:29.944Z,14.30
2022-12-26T10:41:01.380Z,14.40
2022-12-26T10:43:34.084Z,14.40
2022-12-26T10:46:12.927Z,14.50
2022-12-26T10:48:40.171Z,14.60
2022-12-26T10:51:06.878Z,14.70
2022-12-26T10:53:36.596Z,14.80
2022-12-26T10:56:03.428Z,14.90
2022-12-26T10:58:36.217Z,15.00
2022-12-26T11:01:38.351Z,15.10
2022-12-26T11:04:18.859Z,15.20
2022-12-26T11:06:52.594Z,15.30
2022-12-26T11:09:42.749Z,15.40
2022-12-26T11:12:27.532Z,15.40
2022-12-26T11:15:00.664Z,15.40
2022-12-26T11:17:33.420Z,15.40
2022-12-26T11:20:15.579Z,15.40
2022-12-26T11:22:43.921Z,15.40
2022-12-26T11:25:12.487Z,15.50
2022-12-26T11:27:42.817Z,15.60
2022-12-26T11:30:38.591Z,15.70
2022-12-26T11:33:14.270Z,15.70
2022-12-26T11:36:05.423Z,15.70
2022-12-26T11:38:44.136Z,15.70
2022-12-26T11:41:40.279Z,15.60
2022-12-26T11:44:21.808Z,15.60
2022-12-26T11:47:05.895Z,15.60
2022-12-26T11:49:38.657Z,15.60
2022-12-26T11:52:42.761Z,15.60
2022-12-26T11:55:24.943Z,15.60
2022-12-26T11:57:58.875Z,15.60
2022-12-26T12:00:26.642Z,15.60
2022-12-26T12:02:53.595Z,15.60
2022-12-26T12:05:45.340Z,15.60
2022-12-26T12:08:34.582Z,15.60
2022-12-26T12:11:09.851Z,15.60
2022-12-26T12:13:49.654Z,15.60
2022-12-26T12:16:31.605Z,15.60
2022-12-26T12:19:21.635Z,15.70
2022-12-26T12:21:59.659Z,15.70
2022-12-26T12:24:57.051Z,15.60
2022-12-26T12:27:26.853Z,15.60
2022-12-26T12:30:10.737Z,15.60
2022-12-26T12:33:03.597Z,15.60
2022-12-26T12:35:48.478Z,15.50
2022-12-26T12:38:33.531Z,15.50
2022-12-26T12:41:25.318Z,15.40
2022-12-26T12:44:19.486Z,15.40
2022-12-26T12:47:10.706Z,15.30
2022-12-26T12:49:44.068Z,15.30
2022-12-26T12:52:36.294Z,15.30
2022-12-26T12:55:24.583Z,15.30
2022-12-26T12:58:16.026Z,15.30
2022-12-26T13:00:55.944Z,15.20
2022-12-26T13:03:22.894Z,15.20
2022-12-26T13:06:01.275Z,15.20
2022-12-26T13:08:48.954Z,15.20
2022-12-26T13:11:26.537Z,15.10
2022-12-26T13:14:23.472Z,15.10
2022-12-26T13:17:03.285Z,15.10
2022-12-26T13:19:40.665Z,15.10
2022-12-26T13:22:16.752Z,15.00
2022-12-26T13:24:48.584Z,15.00
2022-12-26T13:27:35.586Z,15.00
2022-12-26T13:30:12.277Z,14.90
2022-12-26T13:32:43.345Z,14.90
2022-12-26T13:35:51.398Z,14.90
2022-12-26T13:38:19.318Z,14.90
2022-12-26T13:40:49.888Z,14.90
2022-12-26T13:43:43.116Z,14.80
2022-12-26T13:46:40.562Z,14.80
2022-12-26T13:49:29.957Z,14.80
2022-12-26T13:52:23.106Z,14.70
2022-12-26T13:54:50.399Z,14.70
2022-12-26T13:57:23.131Z,14.60
2022-12-26T14:00:10.698Z,14.70
2022-12-26T14:03:16.044Z,14.60
2022-12-26T14:05:55.566Z,14.60
2022-12-26T14:08:54.720Z,14.60
2022-12-26T14:11:52.277Z,14.50
2022-12-26T14:14:50.795Z,14.50
2022-12-26T14:17:47.932Z,14.40
2022-12-26T14:20:49.048Z,14.40
2022-12-26T14:23:48.134Z,14.40
2022-12-26T14:26:17.816Z,14.30
2022-12-26T14:28:47.496Z,14.30
2022-12-26T14:31:38.854Z,14.30
2022-12-26T14:34:34.101Z,14.20
2022-12-26T14:37:09.746Z,14.20
2022-12-26T14:40:00.906Z,14.20
2022-12-26T14:42:48.656Z,14.20
2022-12-26T14:45:27.567Z,14.20
2022-12-26T14:47:54.569Z,14.20
2022-12-26T14:50:49.552Z,14.20
2022-12-26T14:53:27.972Z,14.20
2022-12-26T14:56:15.849Z,14.10
2022-12-26T14:58:52.083Z,14.10
2022-12-26T15:01:23.093Z,14.10
2022-12-26T15:04:10.523Z,14.10
2022-12-26T15:07:14.106Z,14.00
2022-12-26T15:09:48.060Z,13.90
2022-12-26T15:13:01.701Z,13.80
2022-12-26T15:15:34.111Z,13.70
2022-12-26T15:18:24.752Z,13.60
2022-12-26T15:21:12.369Z,13.60
2022-12-26T15:24:14.421Z,13.50
2022-12-26T15:27:01.174Z,13.40
2022-12-26T15:29:40.215Z,13.30
2022-12-26T15:32:23.428Z,13.30
2022-12-26T15:35:15.603Z,13.30
2022-12-26T15:37:59.050Z,13.20
2022-12-26T15:40:52.592Z,13.10
2022-12-26T15:43:35.196Z,13.00
2022-12-26T15:46:27.485Z,13.00
2022-12-26T15:49:08.099Z,13.00
2022-12-26T15:51:56.171Z,12.90
2022-12-26T15:54:48.179Z,12.90
2022-12-26T15:57:30.969Z,12.90
2022-12-26T16:00:22.499Z,12.80
2022-12-26T16:03:01.893Z,12.80
2022-12-26T16:05:34.252Z,12.70
2022-12-26T16:08:14.015Z,12.70
2022-12-26T16:10:41.353Z,12.70
2022-12-26T16:13:15.012Z,12.70
2022-12-26T16:15:56.021Z,12.70
2022-12-26T16:18:27.532Z,12.60
2022-12-26T16:21:16.446Z,12.60
2022-12-26T16:23:44.883Z,12.60
2022-12-26T16:26:20.257Z,12.60
2022-12-26T16:28:47.207Z,12.50
2022-12-26T16:31:27.396Z,12.50
2022-12-26T16:33:57.252Z,12.40
2022-12-26T16:36:29.613Z,12.40
2022-12-26T16:38:56.663Z,12.40
2022-12-26T16:41:29.398Z,12.30
2022-12-26T16:43:58.263Z,12.30
2022-12-26T16:46:31.024Z,12.30
2022-12-26T16:49:00.432Z,12.30
2022-12-26T16:51:44.873Z,12.20
2022-12-26T16:54:16.250Z,12.20
2022-12-26T16:56:43.343Z,12.20
2022-12-26T16:59:20.152Z,12.20
2022-12-26T17:01:52.310Z,12.10
2022-12-26T17:04:23.164Z,12.10
2022-12-26T17:06:58.892Z,12.10
2022-12-26T17:09:29.231Z,12.00
2022-12-26T17:12:08.232Z,12.00
2022-12-26T17:14:38.801Z,12.00
2022-12-26T17:17:08.606Z,12.00
2022-12-26T17:19:36.956Z,11.90
2022-12-26T17:22:17.790Z,11.90
2022-12-26T17:24:46.924Z,11.90
2022-12-26T17:27:32.199Z,11.90
2022-12-26T17:30:22.363Z,11.90
2022-12-26T17:32:49.184Z,11.80
2022-12-26T17:35:27.095Z,11.80
2022-12-26T17:38:06.870Z,11.80
2022-12-26T17:40:37.152Z,11.70
2022-12-26T17:43:13.033Z,11.70
2022-12-26T17:45:46.965Z,11.70
2022-12-26T17:48:14.372Z,11.70
2022-12-26T17:50:44.774Z,11.60
2022-12-26T17:53:33.043Z,11.60
2022-12-26T17:56:02.840Z,11.50
2022-12-26T17:58:30.123Z,11.50
2022-12-26T18:00:57.753Z,11.50
2022-12-26T18:03:24.792Z,11.50
2022-12-26T18:05:53.498Z,11.40
2022-12-26T18:08:36.073Z,11.40
2022-12-26T18:11:08.789Z,11.40
2022-12-26T18:13:36.429Z,11.30
2022-12-26T18:16:04.576Z,11.30
2022-12-26T18:18:35.584Z,11.30
2022-12-26T18:21:04.213Z,11.30
2022-12-26T18:23:30.903Z,11.30
2022-12-26T18:26:01.158Z,11.20
2022-12-26T18:28:28.745Z,11.20
2022-12-26T18:30:57.578Z,11.10
2022-12-26T18:33:25.177Z,11.10
2022-12-26T18:35:52.295Z,11.10
2022-12-26T18:38:21.224Z,11.00
2022-12-26T18:40:50.261Z,11.00
2022-12-26T18:43:17.417Z,11.00
2022-12-26T18:45:44.266Z,11.00
2022-12-26T18:48:16.417Z,10.90
2022-12-26T18:50:43.931Z,10.90
2022-12-26T18:53:11.732Z,10.90
2022-12-26T18:55:39.449Z,10.90
2022-12-26T18:58:06.595Z,10.90
2022-12-26T19:00:33.393Z,10.90
2022-12-26T19:03:00.278Z,10.80
2022-12-26T19:05:31.013Z,10.80
2022-12-26T19:07:59.470Z,10.80
2022-12-26T19:10:34.592Z,10.80
2022-12-26T19:13:06.007Z,10.70
2022-12-26T19:15:35.258Z,10.70
2022-12-26T19:18:04.001Z,10.60
2022-12-26T19:20:32.253Z,10.60
2022-12-26T19:22:59.167Z,10.50
2022-12-26T19:25:26.446Z,10.40
2022-12-26T19:27:53.918Z,10.30
2022-12-26T19:30:21.906Z,10.20
2022-12-26T19:32:50.427Z,10.10
2022-12-26T19:35:18.295Z,10.00
2022-12-26T19:37:45.764Z,9.90
2022-12-26T19:40:18.434Z,9.90
2022-12-26T19:42:48.560Z,9.80
2022-12-26T19:45:16.048Z,9.70
2022-12-26T19:47:42.949Z,9.60
2022-12-26T19:50:11.866Z,9.50
2022-12-26T19:52:39.529Z,9.50
2022-12-26T19:55:08.401Z,9.40
2022-12-26T19:57:35.432Z,9.30
2022-12-26T20:00:02.877Z,9.20
2022-12-26T20:02:39.414Z,9.10
2022-12-26T20:05:08.208Z,9.00
2022-12-26T20:07:35.114Z,8.90
2022-12-26T20:10:01.910Z,8.80
2022-12-26T20:12:28.857Z,8.80
2022-12-26T20:14:55.867Z,8.70
2022-12-26T20:17:22.865Z,8.60
2022-12-26T20:19:50.183Z,8.60
2022-12-26T20:22:16.889Z,8.50
2022-12-26T20:24:43.804Z,8.40
2022-12-26T20:27:10.798Z,8.40
2022-12-26T20:29:37.625Z,8.30
2022-12-26T20:32:04.762Z,8.30
2022-12-26T20:34:31.523Z,8.30
2022-12-26T20:36:58.382Z,8.20
2022-12-26T20:39:25.576Z,8.10
2022-12-26T20:41:52.866Z,8.10
2022-12-26T20:44:19.969Z,8.10
2022-12-26T20:46:47.177Z,8.00
2022-12-26T20:49:14.376Z,7.90
2022-12-26T20:51:42.862Z,7.90
2022-12-26T20:54:12.225Z,7.90
2022-12-26T20:56:39.657Z,7.90
2022-12-26T20:59:07.043Z,7.80
2022-12-26T21:01:37.739Z,7.80
2022-12-26T21:04:04.936Z,7.80
2022-12-26T21:06:34.955Z,7.70
2022-12-26T21:09:03.251Z,7.70
2022-12-26T21:11:32.603Z,7.70
2022-12-26T21:14:03.076Z,7.60
2022-12-26T21:16:36.088Z,7.60
2022-12-26T21:19:04.918Z,7.60
2022-12-26T21:21:36.622Z,7.60
2022-12-26T21:24:10.195Z,7.50
2022-12-26T21:26:39.656Z,7.50
2022-12-26T21:29:08.899Z,7.50
2022-12-26T21:31:37.247Z,7.40
2022-12-26T21:34:04.872Z,7.40
2022-12-26T21:36:34.288Z,7.30
2022-12-26T21:39:06.346Z,7.30
2022-12-26T21:41:33.601Z,7.30
2022-12-26T21:44:00.316Z,7.30
2022-12-26T21:46:27.203Z,7.30
2022-12-26T21:48:55.254Z,7.30
2022-12-26T21:51:26.080Z,7.30
2022-12-26T21:54:13.309Z,7.30
2022-12-26T21:56:40.116Z,7.30
2022-12-26T21:59:25.259Z,7.30
2022-12-26T22:01:52.226Z,7.30
2022-12-26T22:04:19.068Z,7.30
2022-12-26T22:06:45.984Z,7.20
2022-12-26T22:09:12.662Z,7.20
2022-12-26T22:11:57.784Z,7.10
2022-12-26T22:14:24.840Z,7.10
2022-12-26T22:16:52.930Z,7.10
2022-12-26T22:19:19.854Z,7.10
2022-12-26T22:21:46.820Z,7.00
2022-12-26T22:24:14.822Z,7.00
2022-12-26T22:26:42.112Z,7.00
2022-12-26T22:29:09.092Z,7.00
2022-12-26T22:31:38.813Z,6.90
2022-12-26T22:34:07.981Z,6.90
2022-12-26T22:36:35.293Z,6.90
2022-12-26T22:39:02.537Z,6.90
2022-12-26T22:41:29.646Z,6.80
2022-12-26T22:43:56.464Z,6.80
2022-12-26T22:46:23.244Z,6.80
2022-12-26T22:48:50.131Z,6.80
2022-12-26T22:51:19.438Z,6.80
2022-12-26T22:53:47.045Z,6.70
2022-12-26T22:56:14.021Z,6.70
2022-12-26T22:58:40.943Z,6.70
2022-12-26T23:01:16.077Z,6.70
2022-12-26T23:03:43.650Z,6.70
2022-12-26T23:06:25.836Z,6.70
2022-12-26T23:08:56.523Z,6.70
2022-12-26T23:11:30.160Z,6.70
2022-12-26T23:14:01.494Z,6.70
2022-12-26T23:16:38.363Z,6.70
2022-12-26T23:19:35.030Z,6.70
2022-12-26T23:22:02.675Z,6.70
2022-12-26T23:24:31.854Z,6.60
2022-12-26T23:27:21.751Z,6.70
2022-12-26T23:30:08.966Z,6.60
2022-12-26T23:32:37.177Z,6.60
2022-12-26T23:35:05.326Z,6.60
2022-12-26T23:37:32.115Z,6.60
2022-12-26T23:39:59.490Z,6.50
2022-12-26T23:42:26.331Z,6.50
2022-12-26T23:44:53.250Z,6.50
2022-12-26T23:47:19.970Z,6.50
2022-12-26T23:49:46.712Z,6.50
2022-12-26T23:52:13.660Z,6.50
2022-12-26T23:54:40.342Z,6.40
2022-12-26T23:57:07.417Z,6.40
2022-12-26T23:59:34.070Z,6.40
